<?xml version="1.0" encoding="UTF-8" standalone="no" ?>
<gpx xmlns="http://www.topografix.com/GPX/1/1" xmlns:xsi="http://www.w3.org/2001/XMLSchema-instance" xsi:schemaLocation="http://www.topografix.com/GPX/1/1 http://www.topografix.com/GPX/1/1/gpx.xsd" version="1.1" creator="VisuGPX - https://www.visugpx.com">
  <metadata>
    <name>Rialle_Autour_8-22km</name>
    <desc><![CDATA[gnerando idor:6722432_8173011_8173016_12476141_12476155_12511586_12530915_12533090_13050648]]></desc>
  </metadata>
  <wpt lat="47.55079" lon="-1.37723">
    <ele>56.1</ele>
    <name><![CDATA[0000725]]></name>
    <type><![CDATA[Point de départ]]></type>
  </wpt>
  <wpt lat="47.52565" lon="-1.40637">
    <ele>31.3</ele>
    <name><![CDATA[0000726]]></name>
    <desc><![CDATA[<p><br /><h3>Nom: Segment: 1</h3><br />Heure de départ: 05/30/2021 09:30<br/>Heure d'arrivée: 05/30/2021 12:31<br/>Distance: 15,3km (03:00)<br/>Temps déplacement: 02:45<br/>Vitesse moyenne: 5,07 km/h<br/>Vitesse moyenne mouv.: 5,52 km/h<br/>Vitesse Max.: 20,75 km/h<br/>Altitude minimale: 29 m<br/>Altitude maximale: 61 m<br/>Vitesse de montée: 135,3 m/h<br/>Vitesse de descente: -132,1 m/h<br/>Gain d'altitude: 143 m<br/>Perte d'altitude: -165 m<br/>Temps de montée: 01:03<br/>Temps de descente: 01:15<br/></p>]]></desc>
    <type><![CDATA[Point d'arrivée]]></type>
  </wpt>
  <wpt lat="47.52578" lon="-1.40648">
    <ele>31.5</ele>
    <name><![CDATA[0000727]]></name>
    <type><![CDATA[Point de départ]]></type>
  </wpt>
  <wpt lat="47.55083" lon="-1.37712">
    <ele>56.4</ele>
    <name><![CDATA[0000728]]></name>
    <desc><![CDATA[<p><br /><h3>Nom: Segment: 2</h3><br />Heure de départ: 05/30/2021 13:12<br/>Heure d'arrivée: 05/30/2021 14:32<br/>Distance: 6,7km (01:19)<br/>Temps déplacement: 01:16<br/>Vitesse moyenne: 5,05 km/h<br/>Vitesse moyenne mouv.: 5,23 km/h<br/>Vitesse Max.: 8,06 km/h<br/>Altitude minimale: 34 m<br/>Altitude maximale: 68 m<br/>Vitesse de montée: 179 m/h<br/>Vitesse de descente: -145,6 m/h<br/>Gain d'altitude: 102 m<br/>Perte d'altitude: -77 m<br/>Temps de montée: 00:34<br/>Temps de descente: 00:32<br/></p>]]></desc>
    <type><![CDATA[Point d'arrivée]]></type>
  </wpt>
  <trk>
    <name><![CDATA[Riaille_Provostiere_22.5km-6722432]]></name>
    <extensions>
      <line xmlns="http://www.topografix.com/GPX/gpx_style/0/2">
        <color>008800</color>
        <width>4</width>
      </line>
    </extensions>
    <trkseg>
      <trkpt lat="47.52497" lon="-1.34677">
        <ele>32</ele>
        <time>2023-11-11T19:03:22Z</time>
      </trkpt>
      <trkpt lat="47.52375" lon="-1.34531">
        <ele>33</ele>
        <time>2023-11-11T19:06:51Z</time>
      </trkpt>
      <trkpt lat="47.52456" lon="-1.34166">
        <ele>33</ele>
        <time>2023-11-11T19:12:38Z</time>
      </trkpt>
      <trkpt lat="47.52459" lon="-1.34037">
        <ele>33</ele>
        <time>2023-11-11T19:14:34Z</time>
      </trkpt>
      <trkpt lat="47.52589" lon="-1.33745">
        <ele>32</ele>
        <time>2023-11-11T19:19:49Z</time>
      </trkpt>
      <trkpt lat="47.52502" lon="-1.33428">
        <ele>32</ele>
        <time>2023-11-11T19:24:57Z</time>
      </trkpt>
      <trkpt lat="47.52604" lon="-1.33106">
        <ele>33</ele>
        <time>2023-11-11T19:30:18Z</time>
      </trkpt>
      <trkpt lat="47.52459" lon="-1.32986">
        <ele>32</ele>
        <time>2023-11-11T19:34:00Z</time>
      </trkpt>
      <trkpt lat="47.52528" lon="-1.3263">
        <ele>32</ele>
        <time>2023-11-11T19:39:33Z</time>
      </trkpt>
      <trkpt lat="47.52523" lon="-1.32458">
        <ele>32</ele>
        <time>2023-11-11T19:42:08Z</time>
      </trkpt>
      <trkpt lat="47.52621" lon="-1.32291">
        <ele>32</ele>
        <time>2023-11-11T19:45:28Z</time>
      </trkpt>
      <trkpt lat="47.52728" lon="-1.32222">
        <ele>33</ele>
        <time>2023-11-11T19:48:04Z</time>
      </trkpt>
      <trkpt lat="47.52807" lon="-1.32012">
        <ele>32</ele>
        <time>2023-11-11T19:51:40Z</time>
      </trkpt>
      <trkpt lat="47.5303" lon="-1.32509">
        <ele>33</ele>
        <time>2023-11-11T20:00:38Z</time>
      </trkpt>
      <trkpt lat="47.52978" lon="-1.32604">
        <ele>31</ele>
        <time>2023-11-11T20:02:28Z</time>
      </trkpt>
      <trkpt lat="47.52896" lon="-1.33012">
        <ele>32</ele>
        <time>2023-11-11T20:08:52Z</time>
      </trkpt>
      <trkpt lat="47.52925" lon="-1.33084">
        <ele>33</ele>
        <time>2023-11-11T20:10:07Z</time>
      </trkpt>
      <trkpt lat="47.52853" lon="-1.33299">
        <ele>32</ele>
        <time>2023-11-11T20:13:43Z</time>
      </trkpt>
      <trkpt lat="47.52885" lon="-1.33793">
        <ele>39</ele>
        <time>2023-11-11T20:21:11Z</time>
      </trkpt>
      <trkpt lat="47.5283" lon="-1.34149">
        <ele>34</ele>
        <time>2023-11-11T20:26:40Z</time>
      </trkpt>
      <trkpt lat="47.52862" lon="-1.34269">
        <ele>36</ele>
        <time>2023-11-11T20:28:36Z</time>
      </trkpt>
      <trkpt lat="47.52783" lon="-1.34462">
        <ele>37</ele>
        <time>2023-11-11T20:31:59Z</time>
      </trkpt>
      <trkpt lat="47.52978" lon="-1.34458">
        <ele>38</ele>
        <time>2023-11-11T20:36:19Z</time>
      </trkpt>
      <trkpt lat="47.53175" lon="-1.34415">
        <ele>41</ele>
        <time>2023-11-11T20:40:45Z</time>
      </trkpt>
      <trkpt lat="47.53302" lon="-1.34475">
        <ele>48</ele>
        <time>2023-11-11T20:43:43Z</time>
      </trkpt>
      <trkpt lat="47.53285" lon="-1.34814">
        <ele>49</ele>
        <time>2023-11-11T20:48:49Z</time>
      </trkpt>
      <trkpt lat="47.53224" lon="-1.35132">
        <ele>48</ele>
        <time>2023-11-11T20:53:47Z</time>
      </trkpt>
      <trkpt lat="47.53111" lon="-1.3538">
        <ele>55</ele>
        <time>2023-11-11T20:58:17Z</time>
      </trkpt>
      <trkpt lat="47.5303" lon="-1.3549">
        <ele>50</ele>
        <time>2023-11-11T21:00:43Z</time>
      </trkpt>
      <trkpt lat="47.52998" lon="-1.35655">
        <ele>44</ele>
        <time>2023-11-11T21:03:18Z</time>
      </trkpt>
      <trkpt lat="47.53233" lon="-1.35934">
        <ele>57</ele>
        <time>2023-11-11T21:10:00Z</time>
      </trkpt>
      <trkpt lat="47.53456" lon="-1.35574">
        <ele>66</ele>
        <time>2023-11-11T21:17:20Z</time>
      </trkpt>
      <trkpt lat="47.53566" lon="-1.3578">
        <ele>64</ele>
        <time>2023-11-11T21:21:17Z</time>
      </trkpt>
      <trkpt lat="47.5374" lon="-1.36016">
        <ele>57</ele>
        <time>2023-11-11T21:26:32Z</time>
      </trkpt>
      <trkpt lat="47.53937" lon="-1.35788">
        <ele>56</ele>
        <time>2023-11-11T21:32:05Z</time>
      </trkpt>
      <trkpt lat="47.53983" lon="-1.36131">
        <ele>53</ele>
        <time>2023-11-11T21:37:20Z</time>
      </trkpt>
      <trkpt lat="47.53937" lon="-1.36355">
        <ele>49</ele>
        <time>2023-11-11T21:40:51Z</time>
      </trkpt>
      <trkpt lat="47.54038" lon="-1.36389">
        <ele>47</ele>
        <time>2023-11-11T21:43:09Z</time>
      </trkpt>
      <trkpt lat="47.54015" lon="-1.36561">
        <ele>45</ele>
        <time>2023-11-11T21:45:47Z</time>
      </trkpt>
      <trkpt lat="47.54084" lon="-1.36715">
        <ele>43</ele>
        <time>2023-11-11T21:48:34Z</time>
      </trkpt>
      <trkpt lat="47.54507" lon="-1.37119">
        <ele>44</ele>
        <time>2023-11-11T21:59:46Z</time>
      </trkpt>
      <trkpt lat="47.54742" lon="-1.37578">
        <ele>46</ele>
        <time>2023-11-11T22:08:24Z</time>
      </trkpt>
      <trkpt lat="47.55113" lon="-1.37561">
        <ele>59</ele>
        <time>2023-11-11T22:16:40Z</time>
      </trkpt>
      <trkpt lat="47.5513" lon="-1.37702">
        <ele>58</ele>
        <time>2023-11-11T22:18:49Z</time>
      </trkpt>
      <trkpt lat="47.54991" lon="-1.37745">
        <ele>53</ele>
        <time>2023-11-11T22:21:58Z</time>
      </trkpt>
      <trkpt lat="47.54896" lon="-1.37818">
        <ele>54</ele>
        <time>2023-11-11T22:24:21Z</time>
      </trkpt>
      <trkpt lat="47.54913" lon="-1.38045">
        <ele>52</ele>
        <time>2023-11-11T22:27:47Z</time>
      </trkpt>
      <trkpt lat="47.5449" lon="-1.38299">
        <ele>44</ele>
        <time>2023-11-11T22:37:56Z</time>
      </trkpt>
      <trkpt lat="47.54461" lon="-1.38239">
        <ele>44</ele>
        <time>2023-11-11T22:39:02Z</time>
      </trkpt>
      <trkpt lat="47.53882" lon="-1.3841">
        <ele>47</ele>
        <time>2023-11-11T22:52:10Z</time>
      </trkpt>
      <trkpt lat="47.53969" lon="-1.38522">
        <ele>47</ele>
        <time>2023-11-11T22:54:44Z</time>
      </trkpt>
      <trkpt lat="47.5409" lon="-1.38663">
        <ele>48</ele>
        <time>2023-11-11T22:58:10Z</time>
      </trkpt>
      <trkpt lat="47.53832" lon="-1.39221">
        <ele>49</ele>
        <time>2023-11-11T23:08:19Z</time>
      </trkpt>
      <trkpt lat="47.53548" lon="-1.3908">
        <ele>52</ele>
        <time>2023-11-11T23:14:59Z</time>
      </trkpt>
      <trkpt lat="47.53508" lon="-1.38595">
        <ele>49</ele>
        <time>2023-11-11T23:22:19Z</time>
      </trkpt>
      <trkpt lat="47.53728" lon="-1.3844">
        <ele>49</ele>
        <time>2023-11-11T23:27:44Z</time>
      </trkpt>
      <trkpt lat="47.53699" lon="-1.38088">
        <ele>42</ele>
        <time>2023-11-11T23:33:03Z</time>
      </trkpt>
      <trkpt lat="47.5323" lon="-1.38221">
        <ele>40</ele>
        <time>2023-11-11T23:43:41Z</time>
      </trkpt>
      <trkpt lat="47.53233" lon="-1.38509">
        <ele>44</ele>
        <time>2023-11-11T23:48:00Z</time>
      </trkpt>
      <trkpt lat="47.53224" lon="-1.38625">
        <ele>46</ele>
        <time>2023-11-11T23:49:45Z</time>
      </trkpt>
      <trkpt lat="47.52995" lon="-1.38552">
        <ele>55</ele>
        <time>2023-11-11T23:54:58Z</time>
      </trkpt>
      <trkpt lat="47.52981" lon="-1.38612">
        <ele>56</ele>
        <time>2023-11-11T23:55:55Z</time>
      </trkpt>
      <trkpt lat="47.5287" lon="-1.38706">
        <ele>55</ele>
        <time>2023-11-11T23:58:46Z</time>
      </trkpt>
      <trkpt lat="47.52949" lon="-1.3902">
        <ele>63</ele>
        <time>2023-11-12T00:03:48Z</time>
      </trkpt>
      <trkpt lat="47.52957" lon="-1.39406">
        <ele>63</ele>
        <time>2023-11-12T00:09:36Z</time>
      </trkpt>
      <trkpt lat="47.53053" lon="-1.39599">
        <ele>62</ele>
        <time>2023-11-12T00:13:12Z</time>
      </trkpt>
      <trkpt lat="47.5292" lon="-1.39891">
        <ele>56</ele>
        <time>2023-11-12T00:18:29Z</time>
      </trkpt>
      <trkpt lat="47.5296" lon="-1.40028">
        <ele>57</ele>
        <time>2023-11-12T00:20:43Z</time>
      </trkpt>
      <trkpt lat="47.52859" lon="-1.40268">
        <ele>49</ele>
        <time>2023-11-12T00:24:58Z</time>
      </trkpt>
      <trkpt lat="47.52873" lon="-1.40865">
        <ele>55</ele>
        <time>2023-11-12T00:33:56Z</time>
      </trkpt>
      <trkpt lat="47.52644" lon="-1.41088">
        <ele>33</ele>
        <time>2023-11-12T00:40:02Z</time>
      </trkpt>
      <trkpt lat="47.52421" lon="-1.39985">
        <ele>33</ele>
        <time>2023-11-12T00:57:20Z</time>
      </trkpt>
      <trkpt lat="47.52343" lon="-1.39912">
        <ele>31</ele>
        <time>2023-11-12T00:59:23Z</time>
      </trkpt>
      <trkpt lat="47.52375" lon="-1.39616">
        <ele>35</ele>
        <time>2023-11-12T01:03:53Z</time>
      </trkpt>
      <trkpt lat="47.52236" lon="-1.39616">
        <ele>34</ele>
        <time>2023-11-12T01:06:59Z</time>
      </trkpt>
      <trkpt lat="47.52198" lon="-1.39522">
        <ele>33</ele>
        <time>2023-11-12T01:08:37Z</time>
      </trkpt>
      <trkpt lat="47.52227" lon="-1.39436">
        <ele>33</ele>
        <time>2023-11-12T01:10:04Z</time>
      </trkpt>
      <trkpt lat="47.52311" lon="-1.39393">
        <ele>32</ele>
        <time>2023-11-12T01:12:02Z</time>
      </trkpt>
      <trkpt lat="47.52372" lon="-1.3926">
        <ele>34</ele>
        <time>2023-11-12T01:14:27Z</time>
      </trkpt>
      <trkpt lat="47.52456" lon="-1.3917">
        <ele>37</ele>
        <time>2023-11-12T01:16:46Z</time>
      </trkpt>
      <trkpt lat="47.52508" lon="-1.38766">
        <ele>37</ele>
        <time>2023-11-12T01:22:56Z</time>
      </trkpt>
      <trkpt lat="47.52572" lon="-1.38629">
        <ele>40</ele>
        <time>2023-11-12T01:25:26Z</time>
      </trkpt>
      <trkpt lat="47.52444" lon="-1.38522">
        <ele>37</ele>
        <time>2023-11-12T01:28:43Z</time>
      </trkpt>
      <trkpt lat="47.52392" lon="-1.3741">
        <ele>41</ele>
        <time>2023-11-12T01:45:27Z</time>
      </trkpt>
      <trkpt lat="47.521" lon="-1.37277">
        <ele>34</ele>
        <time>2023-11-12T01:52:15Z</time>
      </trkpt>
      <trkpt lat="47.52117" lon="-1.36694">
        <ele>29</ele>
        <time>2023-11-12T02:01:01Z</time>
      </trkpt>
      <trkpt lat="47.52178" lon="-1.36509">
        <ele>33</ele>
        <time>2023-11-12T02:04:06Z</time>
      </trkpt>
      <trkpt lat="47.52114" lon="-1.36329">
        <ele>28</ele>
        <time>2023-11-12T02:07:09Z</time>
      </trkpt>
      <trkpt lat="47.52175" lon="-1.35917">
        <ele>29</ele>
        <time>2023-11-12T02:13:30Z</time>
      </trkpt>
      <trkpt lat="47.52268" lon="-1.35818">
        <ele>33</ele>
        <time>2023-11-12T02:16:02Z</time>
      </trkpt>
      <trkpt lat="47.52279" lon="-1.35651">
        <ele>33</ele>
        <time>2023-11-12T02:18:34Z</time>
      </trkpt>
      <trkpt lat="47.52172" lon="-1.35501">
        <ele>30</ele>
        <time>2023-11-12T02:21:50Z</time>
      </trkpt>
      <trkpt lat="47.52302" lon="-1.35114">
        <ele>32</ele>
        <time>2023-11-12T02:28:20Z</time>
      </trkpt>
      <trkpt lat="47.52349" lon="-1.34835">
        <ele>29</ele>
        <time>2023-11-12T02:32:39Z</time>
        <extensions>
          <visugpx:TrkExtension xmlns:visugpx="https://www.visugpx.com/editgpx/">
            <visugpx:node>1</visugpx:node>
            </visugpx:TrkExtension>
        </extensions>
      </trkpt>
    </trkseg>
  </trk>
</gpx>